createdAt,value
2022-11-06T00:02:25.460Z,97.95
2022-11-06T00:04:52.959Z,97.87
2022-11-06T00:07:20.413Z,97.53
2022-11-06T00:09:48.394Z,98.77
2022-11-06T00:12:16.984Z,97.62
2022-11-06T00:14:44.922Z,97.52
2022-11-06T00:17:12.421Z,96.79
2022-11-06T00:19:39.983Z,96.81
2022-11-06T00:22:07.437Z,94.47
2022-11-06T00:24:34.901Z,93.31
2022-11-06T00:27:03.087Z,92.20
2022-11-06T00:29:30.559Z,93.29
2022-11-06T00:31:58.583Z,93.58
2022-11-06T00:34:26.424Z,95.29
2022-11-06T00:36:53.918Z,96.12
2022-11-06T00:39:21.411Z,97.54
2022-11-06T00:41:48.908Z,98.58
2022-11-06T00:44:16.452Z,99.00
2022-11-06T00:46:44.436Z,99.53
2022-11-06T00:49:12.019Z,100.00
2022-11-06T00:51:39.620Z,100.00
2022-11-06T00:54:11.036Z,100.00
2022-11-06T00:56:39.348Z,100.00
2022-11-06T00:59:10.312Z,100.00
2022-11-06T01:01:40.723Z,100.00
2022-11-06T01:04:19.490Z,100.00
2022-11-06T01:06:49.622Z,98.06
2022-11-06T01:09:19.617Z,95.85
2022-11-06T01:12:12.267Z,93.35
2022-11-06T01:14:42.252Z,93.12
2022-11-06T01:17:09.961Z,94.44
2022-11-06T01:19:37.845Z,94.27
2022-11-06T01:22:05.400Z,95.11
2022-11-06T01:24:32.987Z,95.63
2022-11-06T01:29:48.430Z,96.01
2022-11-06T01:32:15.918Z,95.53
2022-11-06T01:34:43.936Z,95.93
2022-11-06T01:37:14.760Z,95.78
2022-11-06T01:39:42.863Z,95.84
2022-11-06T01:42:12.399Z,95.21
2022-11-06T01:44:43.171Z,95.47
2022-11-06T01:47:25.995Z,95.21
2022-11-06T01:49:57.801Z,95.05
2022-11-06T01:52:27.054Z,95.16
2022-11-06T01:55:00.374Z,95.85
2022-11-06T01:57:28.337Z,96.70
2022-11-06T01:59:56.464Z,97.85
2022-11-06T02:02:24.383Z,96.57
2022-11-06T02:04:52.382Z,97.69
2022-11-06T02:07:20.678Z,95.66
2022-11-06T02:09:48.411Z,93.92
2022-11-06T02:12:49.974Z,93.02
2022-11-06T02:15:32.081Z,91.63
2022-11-06T02:18:36.620Z,90.39
2022-11-06T02:21:10.007Z,90.45
2022-11-06T02:24:04.609Z,88.49
2022-11-06T02:26:50.751Z,87.76
2022-11-06T02:29:25.159Z,88.73
2022-11-06T02:31:56.227Z,86.93
2022-11-06T02:34:27.749Z,85.93
2022-11-06T02:37:04.987Z,86.04
2022-11-06T02:39:36.757Z,84.92
2022-11-06T02:42:07.799Z,81.04
2022-11-06T02:44:39.069Z,80.34
2022-11-06T02:47:11.236Z,79.36
2022-11-06T02:49:46.476Z,77.92
2022-11-06T02:52:20.917Z,78.65
2022-11-06T02:55:12.796Z,81.19
2022-11-06T02:57:44.248Z,80.81
2022-11-06T03:00:14.986Z,81.26
2022-11-06T03:02:50.904Z,80.32
2022-11-06T03:05:24.574Z,79.81
2022-11-06T03:08:11.535Z,81.15
2022-11-06T03:10:49.094Z,83.09
2022-11-06T03:13:22.802Z,83.89
2022-11-06T03:16:05.263Z,85.57
2022-11-06T03:19:03.001Z,88.45
2022-11-06T03:21:40.360Z,86.68
2022-11-06T03:24:16.920Z,87.58
2022-11-06T03:26:51.730Z,87.16
2022-11-06T03:29:39.666Z,89.20
2022-11-06T03:32:14.947Z,90.22
2022-11-06T03:34:53.712Z,91.65
2022-11-06T03:37:29.990Z,93.11
2022-11-06T03:40:03.035Z,95.14
2022-11-06T03:42:30.975Z,94.90
2022-11-06T03:45:02.921Z,95.70
2022-11-06T03:47:37.392Z,95.35
2022-11-06T03:50:13.723Z,96.22
2022-11-06T03:52:51.283Z,95.33
2022-11-06T03:55:25.956Z,96.86
2022-11-06T03:58:06.660Z,96.68
2022-11-06T04:00:36.216Z,97.69
2022-11-06T04:03:14.086Z,97.32
2022-11-06T04:05:51.132Z,98.48
2022-11-06T04:08:40.209Z,99.02
2022-11-06T04:11:29.141Z,99.68
2022-11-06T04:14:01.016Z,100.00
2022-11-06T04:16:41.788Z,100.00
2022-11-06T04:19:20.505Z,99.67
2022-11-06T04:22:23.122Z,100.00
2022-11-06T04:25:12.417Z,100.00
2022-11-06T04:28:02.178Z,100.00
2022-11-06T04:30:43.844Z,100.00
2022-11-06T04:33:24.364Z,100.00
2022-11-06T04:36:01.056Z,99.46
2022-11-06T04:38:35.045Z,98.41
2022-11-06T04:41:21.393Z,98.92
2022-11-06T04:43:59.999Z,98.66
2022-11-06T04:46:35.329Z,98.21
2022-11-06T04:49:05.479Z,99.09
2022-11-06T04:51:37.601Z,99.87
2022-11-06T04:54:08.798Z,100.00
2022-11-06T04:56:41.487Z,100.00
2022-11-06T04:59:15.966Z,100.00
2022-11-06T05:01:44.133Z,100.00
2022-11-06T05:04:12.348Z,100.00
2022-11-06T05:06:39.954Z,100.00
2022-11-06T05:09:07.540Z,100.00
2022-11-06T05:11:35.065Z,100.00
2022-11-06T05:14:02.583Z,100.00
2022-11-06T05:16:31.046Z,100.00
2022-11-06T05:18:58.947Z,100.00
2022-11-06T05:21:44.974Z,100.00
2022-11-06T05:24:13.228Z,100.00
2022-11-06T05:26:41.249Z,100.00
2022-11-06T05:29:08.946Z,100.00
2022-11-06T05:31:36.606Z,100.00
2022-11-06T05:34:04.559Z,100.00
2022-11-06T05:36:32.160Z,100.00
2022-11-06T05:38:59.625Z,100.00
2022-11-06T05:41:27.843Z,100.00
2022-11-06T05:43:55.967Z,100.00
2022-11-06T05:46:59.212Z,100.00
2022-11-06T05:49:37.863Z,100.00
2022-11-06T05:52:05.419Z,100.00
2022-11-06T05:54:32.903Z,100.00
2022-11-06T05:57:00.695Z,100.00
2022-11-06T05:59:28.721Z,100.00
2022-11-06T06:01:57.072Z,100.00
2022-11-06T06:04:25.811Z,100.00
2022-11-06T06:06:53.309Z,100.00
2022-11-06T06:09:20.810Z,100.00
2022-11-06T06:11:52.519Z,100.00
2022-11-06T06:14:21.469Z,100.00
2022-11-06T06:16:48.994Z,100.00
2022-11-06T06:19:16.548Z,100.00
2022-11-06T06:21:44.232Z,100.00
2022-11-06T06:24:11.905Z,100.00
2022-11-06T06:26:39.490Z,100.00
2022-11-06T06:29:06.998Z,100.00
2022-11-06T06:31:34.550Z,100.00
2022-11-06T06:34:02.061Z,100.00
2022-11-06T06:36:30.033Z,100.00
2022-11-06T06:38:57.630Z,100.00
2022-11-06T06:41:25.526Z,100.00
2022-11-06T06:43:53.554Z,100.00
2022-11-06T06:46:21.005Z,100.00
2022-11-06T06:48:48.896Z,100.00
2022-11-06T06:51:21.063Z,100.00
2022-11-06T06:53:51.431Z,100.00
2022-11-06T06:56:18.930Z,100.00
2022-11-06T06:58:46.534Z,100.00
2022-11-06T07:01:14.697Z,100.00
2022-11-06T07:03:42.504Z,98.97
2022-11-06T07:06:10.360Z,99.16
2022-11-06T07:08:37.936Z,96.58
2022-11-06T07:11:08.374Z,95.47
2022-11-06T07:13:36.764Z,95.84
2022-11-06T07:16:06.753Z,95.08
2022-11-06T07:18:35.853Z,95.46
2022-11-06T07:21:12.563Z,91.47
2022-11-06T07:23:41.032Z,90.92
2022-11-06T07:26:08.889Z,89.22
2022-11-06T07:28:36.369Z,87.38
2022-11-06T07:31:05.782Z,84.49
2022-11-06T07:33:35.048Z,84.16
2022-11-06T07:36:11.000Z,84.31
2022-11-06T07:38:40.557Z,82.12
2022-11-06T07:41:10.530Z,79.06
2022-11-06T07:43:39.993Z,76.20
2022-11-06T07:46:10.411Z,74.89
2022-11-06T07:48:39.599Z,73.40
2022-11-06T07:51:09.463Z,73.56
2022-11-06T07:53:37.617Z,71.08
2022-11-06T07:56:05.625Z,70.85
2022-11-06T07:58:33.800Z,72.64
2022-11-06T08:01:01.644Z,71.77
2022-11-06T08:03:32.573Z,72.74
2022-11-06T08:06:04.034Z,72.77
2022-11-06T08:08:32.227Z,70.91
2022-11-06T08:11:08.416Z,69.32
2022-11-06T08:13:36.544Z,69.67
2022-11-06T08:16:13.176Z,68.13
2022-11-06T08:18:40.987Z,68.89
2022-11-06T08:21:09.719Z,72.17
2022-11-06T08:23:37.293Z,69.41
2022-11-06T08:26:06.816Z,69.13
2022-11-06T08:28:35.081Z,66.80
2022-11-06T08:31:07.254Z,65.55
2022-11-06T08:33:37.035Z,64.15
2022-11-06T08:36:05.788Z,61.77
2022-11-06T08:38:33.732Z,56.99
2022-11-06T08:41:12.478Z,54.51
2022-11-06T08:43:40.602Z,51.96
2022-11-06T08:46:09.942Z,48.89
2022-11-06T08:48:37.764Z,48.41
2022-11-06T08:51:06.077Z,48.08
2022-11-06T08:53:33.815Z,46.53
2022-11-06T08:56:05.657Z,45.23
2022-11-06T08:58:33.770Z,46.53
2022-11-06T09:01:01.399Z,45.09
2022-11-06T09:03:28.948Z,43.72
2022-11-06T09:05:56.845Z,40.37
2022-11-06T09:08:24.378Z,37.09
2022-11-06T09:10:58.178Z,35.55
2022-11-06T09:13:26.558Z,33.80
2022-11-06T09:15:54.222Z,33.61
2022-11-06T09:18:21.782Z,32.83
2022-11-06T09:20:49.593Z,30.57
2022-11-06T09:23:17.424Z,29.75
2022-11-06T09:25:45.001Z,28.60
2022-11-06T09:28:12.455Z,28.57
2022-11-06T09:30:40.337Z,29.02
2022-11-06T09:33:13.273Z,29.52
2022-11-06T09:35:41.761Z,30.30
2022-11-06T09:38:12.794Z,28.68
2022-11-06T09:40:50.139Z,29.49
2022-11-06T09:44:03.552Z,30.20
2022-11-06T09:46:35.374Z,28.90
2022-11-06T09:49:26.908Z,28.55
2022-11-06T09:51:57.317Z,28.84
2022-11-06T09:54:31.482Z,30.01
2022-11-06T09:57:16.252Z,31.27
2022-11-06T09:59:44.773Z,30.82
2022-11-06T10:02:29.142Z,30.29
2022-11-06T10:05:23.922Z,29.96
2022-11-06T10:07:56.887Z,30.32
2022-11-06T10:10:33.705Z,30.33
2022-11-06T10:13:23.673Z,31.33
2022-11-06T10:16:00.132Z,32.42
2022-11-06T10:19:15.607Z,33.67
2022-11-06T10:21:50.000Z,31.93
2022-11-06T10:24:54.470Z,31.39
2022-11-06T10:27:34.280Z,30.77
2022-11-06T10:30:18.779Z,31.05
2022-11-06T10:33:04.703Z,32.22
2022-11-06T10:35:37.448Z,31.59
2022-11-06T10:38:13.912Z,32.23
2022-11-06T10:40:44.935Z,32.50
2022-11-06T10:43:33.703Z,33.78
2022-11-06T10:46:01.096Z,35.75
2022-11-06T10:48:41.311Z,36.19
2022-11-06T10:51:38.012Z,37.35
2022-11-06T10:54:20.200Z,35.58
2022-11-06T10:57:08.295Z,35.03
2022-11-06T10:59:36.046Z,34.14
2022-11-06T11:02:05.910Z,34.24
2022-11-06T11:04:35.485Z,35.35
2022-11-06T11:07:20.431Z,33.59
2022-11-06T11:09:50.779Z,33.47
2022-11-06T11:12:26.003Z,33.94
2022-11-06T11:15:14.820Z,33.66
2022-11-06T11:17:43.374Z,33.85
2022-11-06T11:20:41.718Z,32.44
2022-11-06T11:23:25.900Z,34.27
2022-11-06T11:25:56.557Z,33.20
2022-11-06T11:28:36.401Z,31.34
2022-11-06T11:31:09.038Z,31.75
2022-11-06T11:33:39.949Z,32.52
2022-11-06T11:36:10.463Z,32.26
2022-11-06T11:38:41.427Z,31.47
2022-11-06T11:41:20.824Z,33.37
2022-11-06T11:44:16.663Z,33.53
2022-11-06T11:46:53.952Z,32.55
2022-11-06T11:49:33.606Z,31.16
2022-11-06T11:52:05.018Z,30.74
2022-11-06T11:54:35.899Z,30.76
2022-11-06T11:57:17.956Z,29.64
2022-11-06T11:59:55.133Z,30.48
2022-11-06T12:02:30.327Z,30.94
2022-11-06T12:05:27.092Z,29.44
2022-11-06T12:07:57.953Z,28.47
2022-11-06T12:10:26.078Z,28.01
2022-11-06T12:12:54.785Z,27.76
2022-11-06T12:15:25.475Z,28.70
2022-11-06T12:17:58.739Z,28.98
2022-11-06T12:20:59.762Z,28.62
2022-11-06T12:23:49.134Z,28.22
2022-11-06T12:26:37.319Z,28.71
2022-11-06T12:29:16.335Z,28.98
2022-11-06T12:31:47.302Z,28.72
2022-11-06T12:34:28.763Z,26.28
2022-11-06T12:37:37.684Z,25.95
2022-11-06T12:40:22.129Z,24.81
2022-11-06T12:43:13.126Z,25.68
2022-11-06T12:45:44.594Z,24.19
2022-11-06T12:48:39.342Z,23.93
2022-11-06T12:51:20.854Z,24.53
2022-11-06T12:54:21.467Z,24.59
2022-11-06T12:57:10.105Z,24.68
2022-11-06T13:00:11.918Z,27.06
2022-11-06T13:03:13.432Z,26.86
2022-11-06T13:05:46.740Z,28.17
2022-11-06T13:08:33.317Z,27.85
2022-11-06T13:11:07.374Z,28.54
2022-11-06T13:13:41.243Z,29.06
2022-11-06T13:16:28.028Z,26.98
2022-11-06T13:19:01.550Z,26.42
2022-11-06T13:21:52.528Z,28.09
2022-11-06T13:24:35.973Z,27.47
2022-11-06T13:27:25.090Z,26.44
2022-11-06T13:29:59.233Z,25.92
2022-11-06T13:32:30.545Z,25.46
2022-11-06T13:35:00.942Z,27.79
2022-11-06T13:37:40.779Z,26.49
2022-11-06T13:40:28.260Z,26.46
2022-11-06T13:43:02.982Z,26.19
2022-11-06T13:45:41.268Z,26.34
2022-11-06T13:48:33.237Z,27.39
2022-11-06T13:51:31.829Z,26.79
2022-11-06T13:54:11.599Z,30.56
2022-11-06T13:56:55.449Z,31.18
2022-11-06T13:59:40.899Z,31.00
2022-11-06T14:02:27.395Z,31.28
2022-11-06T14:05:36.627Z,31.77
2022-11-06T14:08:12.286Z,32.97
2022-11-06T14:10:50.143Z,33.62
2022-11-06T14:13:25.378Z,34.38
2022-11-06T14:16:22.335Z,35.29
2022-11-06T14:19:03.382Z,37.54
2022-11-06T14:21:36.710Z,37.74
2022-11-06T14:24:14.540Z,38.50
2022-11-06T14:26:45.032Z,37.44
2022-11-06T14:29:28.603Z,38.99
2022-11-06T14:31:59.328Z,38.35
2022-11-06T14:34:34.913Z,38.21
2022-11-06T14:37:18.146Z,37.60
2022-11-06T14:39:52.963Z,38.08
2022-11-06T14:42:32.373Z,40.46
2022-11-06T14:45:21.734Z,42.64
2022-11-06T14:47:54.379Z,44.61
2022-11-06T14:50:41.066Z,45.94
2022-11-06T14:53:20.256Z,46.46
2022-11-06T14:55:59.010Z,46.64
2022-11-06T14:58:34.996Z,47.26
2022-11-06T15:01:08.485Z,48.46
2022-11-06T15:03:45.944Z,49.71
2022-11-06T15:06:16.552Z,49.58
2022-11-06T15:08:46.903Z,50.16
2022-11-06T15:11:29.875Z,51.18
2022-11-06T15:14:17.358Z,51.97
2022-11-06T15:16:50.021Z,52.94
2022-11-06T15:19:23.509Z,54.22
2022-11-06T15:22:00.967Z,54.82
2022-11-06T15:24:34.412Z,56.04
2022-11-06T15:27:13.041Z,56.55
2022-11-06T15:29:44.124Z,57.91
2022-11-06T15:32:16.723Z,58.36
2022-11-06T15:34:58.845Z,59.66
2022-11-06T15:37:56.150Z,61.25
2022-11-06T15:40:29.510Z,61.48
2022-11-06T15:43:00.985Z,61.78
2022-11-06T15:45:30.001Z,61.50
2022-11-06T15:47:59.997Z,62.80
2022-11-06T15:50:31.471Z,64.65
2022-11-06T15:53:14.569Z,65.22
2022-11-06T15:55:49.067Z,66.16
2022-11-06T15:58:17.041Z,67.17
2022-11-06T16:00:46.010Z,68.62
2022-11-06T16:03:52.790Z,71.70
2022-11-06T16:06:21.246Z,74.53
2022-11-06T16:08:51.067Z,81.75
2022-11-06T16:11:20.689Z,82.30
2022-11-06T16:13:49.218Z,81.99
2022-11-06T16:16:50.671Z,82.33
2022-11-06T16:19:21.897Z,81.28
2022-11-06T16:21:56.285Z,81.45
2022-11-06T16:24:26.412Z,81.58
2022-11-06T16:26:54.630Z,82.53
2022-11-06T16:29:27.281Z,81.93
2022-11-06T16:32:15.925Z,83.90
2022-11-06T16:34:46.894Z,84.35
2022-11-06T16:37:17.474Z,85.11
2022-11-06T16:39:50.910Z,85.31
2022-11-06T16:42:24.976Z,83.58
2022-11-06T16:45:18.807Z,85.48
2022-11-06T16:48:24.403Z,87.34
2022-11-06T16:50:55.030Z,89.11
2022-11-06T16:53:44.504Z,89.68
2022-11-06T16:56:13.663Z,91.60
2022-11-06T16:59:15.852Z,91.87
2022-11-06T17:01:45.777Z,90.36
2022-11-06T17:04:29.802Z,93.52
2022-11-06T17:06:58.650Z,92.88
2022-11-06T17:09:26.380Z,93.69
2022-11-06T17:11:56.048Z,94.38
2022-11-06T17:14:24.615Z,93.61
2022-11-06T17:17:00.606Z,93.71
2022-11-06T17:19:29.343Z,92.44
2022-11-06T17:21:57.988Z,93.27
2022-11-06T17:24:41.437Z,92.80
2022-11-06T17:27:09.829Z,91.80
2022-11-06T17:29:38.890Z,92.37
2022-11-06T17:32:06.845Z,93.92
2022-11-06T17:34:34.353Z,95.81
2022-11-06T17:37:01.875Z,95.06
2022-11-06T17:39:29.925Z,95.19
2022-11-06T17:41:57.411Z,94.08
2022-11-06T17:44:24.930Z,92.66
2022-11-06T17:46:52.904Z,92.34
2022-11-06T17:49:20.464Z,94.32
2022-11-06T17:51:53.596Z,94.35
2022-11-06T17:54:32.770Z,95.32
2022-11-06T17:57:03.457Z,95.07
2022-11-06T17:59:31.673Z,95.01
2022-11-06T18:02:00.039Z,95.46
2022-11-06T18:04:30.732Z,95.71
2022-11-06T18:06:58.462Z,94.58
2022-11-06T18:09:26.527Z,95.09
2022-11-06T18:11:55.621Z,96.55
2022-11-06T18:14:24.173Z,96.49
2022-11-06T18:16:52.404Z,96.11
2022-11-06T18:19:22.998Z,96.60
2022-11-06T18:21:51.136Z,95.86
2022-11-06T18:24:19.200Z,97.00
2022-11-06T18:26:47.118Z,96.73
2022-11-06T18:29:14.825Z,94.64
2022-11-06T18:31:42.672Z,91.09
2022-11-06T18:34:18.315Z,92.02
2022-11-06T18:36:50.783Z,94.55
2022-11-06T18:39:19.359Z,92.60
2022-11-06T18:41:47.404Z,91.73
2022-11-06T18:44:18.566Z,93.28
2022-11-06T18:46:47.003Z,94.55
2022-11-06T18:49:15.899Z,93.45
2022-11-06T18:51:44.249Z,93.08
2022-11-06T18:54:13.979Z,93.96
2022-11-06T18:56:41.619Z,94.66
2022-11-06T18:59:14.166Z,95.81
2022-11-06T19:01:42.366Z,96.23
2022-11-06T19:04:10.909Z,96.61
2022-11-06T19:06:40.228Z,96.58
2022-11-06T19:09:09.211Z,97.91
2022-11-06T19:11:37.391Z,98.97
2022-11-06T19:14:05.035Z,96.51
2022-11-06T19:16:32.753Z,95.99
2022-11-06T19:19:05.609Z,97.56
2022-11-06T19:21:35.029Z,97.80
2022-11-06T19:24:05.260Z,95.47
2022-11-06T19:26:35.688Z,94.91
2022-11-06T19:29:05.593Z,94.93
2022-11-06T19:31:34.157Z,93.98
2022-11-06T19:34:03.447Z,94.32
2022-11-06T19:36:31.750Z,94.33
2022-11-06T19:39:00.921Z,93.12
2022-11-06T19:41:29.453Z,92.03
2022-11-06T19:43:57.156Z,92.20
2022-11-06T19:46:29.789Z,92.30
2022-11-06T19:49:04.320Z,91.93
2022-11-06T19:51:33.517Z,90.00
2022-11-06T19:54:05.851Z,89.75
2022-11-06T19:56:33.850Z,90.19
2022-11-06T19:59:02.297Z,90.33
2022-11-06T20:01:30.240Z,90.66
2022-11-06T20:03:58.680Z,90.89
2022-11-06T20:06:27.768Z,91.53
2022-11-06T20:08:55.619Z,92.36
2022-11-06T20:11:23.789Z,91.39
2022-11-06T20:13:51.312Z,91.75
2022-11-06T20:16:21.324Z,90.43
2022-11-06T20:19:02.539Z,90.93
2022-11-06T20:21:30.410Z,91.61
2022-11-06T20:23:59.185Z,92.37
2022-11-06T20:26:28.405Z,92.79
2022-11-06T20:28:56.655Z,93.16
2022-11-06T20:31:25.526Z,93.27
2022-11-06T20:33:53.498Z,92.91
2022-11-06T20:36:26.674Z,92.85
2022-11-06T20:38:56.698Z,92.28
2022-11-06T20:41:25.533Z,92.05
2022-11-06T20:43:53.475Z,92.11
2022-11-06T20:46:22.951Z,93.39
2022-11-06T20:48:52.048Z,92.63
2022-11-06T20:51:25.337Z,93.43
2022-11-06T20:53:53.521Z,93.50
2022-11-06T20:56:25.206Z,94.02
2022-11-06T20:58:54.985Z,93.66
2022-11-06T21:01:27.095Z,94.95
2022-11-06T21:03:57.677Z,95.92
2022-11-06T21:06:27.383Z,93.62
2022-11-06T21:08:55.837Z,94.14
2022-11-06T21:11:26.940Z,93.55
2022-11-06T21:13:55.269Z,92.31
2022-11-06T21:16:26.294Z,92.88
2022-11-06T21:18:54.699Z,93.81
2022-11-06T21:21:24.638Z,93.88
2022-11-06T21:23:53.760Z,94.17
2022-11-06T21:26:30.397Z,93.50
2022-11-06T21:28:58.757Z,94.29
2022-11-06T21:31:30.800Z,95.18
2022-11-06T21:34:00.348Z,95.95
2022-11-06T21:36:33.345Z,98.17
2022-11-06T21:39:05.042Z,96.98
2022-11-06T21:41:34.491Z,97.50
2022-11-06T21:44:04.267Z,97.74
2022-11-06T21:46:32.109Z,98.45
2022-11-06T21:49:00.057Z,99.05
2022-11-06T21:51:30.540Z,98.98
2022-11-06T21:54:18.480Z,100.00
2022-11-06T21:56:50.856Z,100.00
2022-11-06T21:59:20.942Z,100.00
2022-11-06T22:01:48.507Z,100.00
2022-11-06T22:04:16.695Z,100.00
2022-11-06T22:06:45.124Z,100.00
2022-11-06T22:09:14.684Z,100.00
2022-11-06T22:11:44.143Z,99.44
2022-11-06T22:14:15.175Z,100.00
2022-11-06T22:16:45.182Z,100.00
2022-11-06T22:19:13.635Z,100.00
2022-11-06T22:21:41.337Z,100.00
2022-11-06T22:24:12.509Z,100.00
2022-11-06T22:26:41.058Z,100.00
2022-11-06T22:29:12.503Z,100.00
2022-11-06T22:31:40.931Z,100.00
2022-11-06T22:34:11.072Z,100.00
2022-11-06T22:36:39.251Z,99.71
2022-11-06T22:39:09.040Z,99.03
2022-11-06T22:41:37.849Z,98.13
2022-11-06T22:44:06.000Z,98.38
2022-11-06T22:46:35.140Z,98.13
2022-11-06T22:49:04.405Z,98.41
2022-11-06T22:51:32.719Z,97.22
2022-11-06T22:54:02.152Z,96.59
2022-11-06T22:56:31.298Z,95.45
2022-11-06T22:59:02.089Z,95.85
2022-11-06T23:01:31.634Z,96.62
2022-11-06T23:04:01.559Z,96.86
2022-11-06T23:06:30.430Z,96.25
2022-11-06T23:08:59.051Z,96.08
2022-11-06T23:11:29.260Z,95.46
2022-11-06T23:14:03.334Z,95.03
2022-11-06T23:16:53.991Z,93.01
2022-11-06T23:19:22.818Z,93.20
2022-11-06T23:21:52.554Z,93.45
2022-11-06T23:24:20.479Z,93.59
2022-11-06T23:26:48.033Z,93.22
2022-11-06T23:29:15.710Z,92.78
2022-11-06T23:31:43.321Z,92.33
2022-11-06T23:34:11.289Z,91.50
2022-11-06T23:36:39.451Z,90.60
2022-11-06T23:39:07.109Z,90.25
2022-11-06T23:41:43.193Z,89.41
2022-11-06T23:44:30.824Z,90.35
2022-11-06T23:46:58.962Z,89.64
2022-11-06T23:49:26.999Z,89.79
2022-11-06T23:51:54.645Z,89.50
2022-11-06T23:54:22.259Z,89.58
2022-11-06T23:56:50.253Z,90.62
2022-11-06T23:59:17.759Z,90.27
